Quinsam, Canada
Current Conditions -  °F | °C
As of 6:00 AM on Sunday 21 Dec 2014 (Local Time) from CYBL Reporting Station
Scattered Clouds Scattered Clouds  
Wind Chill: 34°   Ceiling: Unl
Heat Index: 34°   Visibility: 15mi
Dew Point: 34°   Wind: 2mph
Humidity: 100%   Direction: NA
Pressure: 29.7"   Gusts: NA
Location:  49.98°N, 125.43°W
Report Text: CYBL 211400Z VRB02KT 15SM SCT060 01/01 A2970 RMK SC4 SLP059
Loading
Personal Weather Stations






























Interactive Weather Map New forecast layout! Learn more

10-Day Weather Forecast

Advertisements
Track Severe Weather on mobile